Time;durP1;ratioP1;P1;durP2;ratioP2;P2;SDS_P1;SDS_P2;PMS_P1;PMS_P2;Temp;Humidity;BMP_temperature;BMP_pressure;BME280_temperature;BME280_humidity;BME280_pressure;Samples;Min_cycle;Max_cycle;Signal;HPM_P1;HPM_P2
2023/02/17 00:01:27;;;;;;;19.70;17.70;;;11.20;99.90;;;;;;5054817;28;20470;-71
2023/02/17 00:03:55;;;;;;;19.53;16.30;;;11.20;99.90;;;;;;5052757;28;20804;-74
2023/02/17 00:06:24;;;;;;;19.20;17.30;;;11.30;99.90;;;;;;5055645;28;20517;-71
2023/02/17 00:08:53;;;;;;;18.10;16.40;;;11.20;99.90;;;;;;5057998;28;20467;-74
2023/02/17 00:11:20;;;;;;;17.40;15.80;;;11.20;99.90;;;;;;5058093;28;20477;-72
2023/02/17 00:13:47;;;;;;;19.50;16.53;;;11.10;99.90;;;;;;5052567;28;20471;-71
2023/02/17 00:16:17;;;;;;;21.83;17.60;;;11.10;99.90;;;;;;5058191;28;20498;-73
2023/02/17 00:18:44;;;;;;;17.23;15.50;;;11.20;99.90;;;;;;5049649;28;20468;-73
2023/02/17 00:21:14;;;;;;;18.20;16.30;;;11.10;99.90;;;;;;5045702;28;20865;-72
2023/02/17 00:23:41;;;;;;;17.67;15.87;;;11.10;99.90;;;;;;5055371;28;20498;-72
2023/02/17 00:26:08;;;;;;;17.37;15.70;;;11.20;99.90;;;;;;5056805;28;20467;-72
2023/02/17 00:28:35;;;;;;;17.03;15.33;;;11.20;99.90;;;;;;5054177;28;20463;-72
2023/02/17 00:31:07;;;;;;;16.27;13.90;;;11.20;99.90;;;;;;5054422;28;20494;-72
2023/02/17 00:33:34;;;;;;;18.30;15.77;;;11.10;99.90;;;;;;5053342;28;20557;-71
2023/02/17 00:36:04;;;;;;;13.97;12.60;;;11.10;99.90;;;;;;5051260;28;20507;-74
2023/02/17 00:38:33;;;;;;;15.10;13.60;;;11.10;99.90;;;;;;5060067;28;20474;-72
2023/02/17 00:41:00;;;;;;;15.63;14.13;;;11.20;99.90;;;;;;5057615;28;20456;-72
2023/02/17 00:43:27;;;;;;;17.20;15.50;;;11.10;99.90;;;;;;5051070;28;20463;-77
2023/02/17 00:45:54;;;;;;;16.93;15.00;;;11.10;99.90;;;;;;5060306;28;20554;-71
2023/02/17 00:48:21;;;;;;;17.17;15.33;;;11.10;99.90;;;;;;5056202;28;20557;-70
2023/02/17 00:50:49;;;;;;;18.10;16.10;;;11.10;99.90;;;;;;5045785;28;20460;-70
2023/02/17 00:53:16;;;;;;;17.70;15.53;;;11.00;99.90;;;;;;5057089;28;20459;-70
2023/02/17 00:55:44;;;;;;;15.90;14.40;;;11.10;99.90;;;;;;5057998;28;20487;-72
2023/02/17 00:58:10;;;;;;;15.97;14.53;;;11.10;99.90;;;;;;5053598;28;20455;-68
2023/02/17 01:00:37;;;;;;;16.10;14.53;;;11.10;99.90;;;;;;5058938;28;20470;-73
2023/02/17 01:03:05;;;;;;;20.43;15.23;;;11.10;99.90;;;;;;5052588;28;20456;-72
2023/02/17 01:05:32;;;;;;;15.77;14.17;;;11.10;99.90;;;;;;5052452;28;20468;-71
2023/02/17 01:07:59;;;;;;;14.23;12.93;;;11.10;99.90;;;;;;5055821;28;20460;-71
2023/02/17 01:10:25;;;;;;;14.90;13.50;;;11.00;99.90;;;;;;5052092;28;20456;-69
2023/02/17 01:12:53;;;;;;;14.87;13.60;;;11.10;99.90;;;;;;5055362;28;20459;-73
2023/02/17 01:15:20;;;;;;;16.33;12.10;;;11.00;99.90;;;;;;5050204;28;21172;-74
2023/02/17 01:17:47;;;;;;;16.27;14.20;;;11.10;99.90;;;;;;5058471;28;20455;-70
2023/02/17 01:20:14;;;;;;;16.20;14.50;;;11.10;99.90;;;;;;5050153;28;20506;-70
2023/02/17 01:22:41;;;;;;;14.67;13.20;;;11.00;99.90;;;;;;5051334;28;20546;-70
2023/02/17 01:25:09;;;;;;;15.73;12.90;;;11.10;99.90;;;;;;5048736;28;20543;-69
2023/02/17 01:27:36;;;;;;;15.10;13.60;;;11.10;99.90;;;;;;5049516;28;20460;-69
2023/02/17 01:30:05;;;;;;;14.37;13.07;;;11.10;99.90;;;;;;5048529;28;20551;-72
2023/02/17 01:32:32;;;;;;;13.83;12.53;;;11.00;99.90;;;;;;5051144;28;20471;-70
2023/02/17 01:34:59;;;;;;;15.10;13.63;;;11.10;99.90;;;;;;5050444;28;20466;-69
2023/02/17 01:37:26;;;;;;;14.67;13.37;;;11.10;99.90;;;;;;5055855;28;20486;-69
2023/02/17 01:39:52;;;;;;;15.57;13.90;;;11.10;99.90;;;;;;5056907;28;20515;-69
2023/02/17 01:42:20;;;;;;;13.80;12.47;;;11.10;99.90;;;;;;5047766;28;20488;-69
2023/02/17 01:45:24;;;;;;;13.70;12.50;;;11.10;99.90;;;;;;5055006;28;21025;-71
2023/02/17 01:47:56;;;;;;;15.17;13.67;;;11.00;99.90;;;;;;5055797;28;20541;-70
2023/02/17 01:50:28;;;;;;;14.20;12.93;;;11.00;99.90;;;;;;5062903;28;20558;-72
2023/02/17 01:52:55;;;;;;;14.37;13.10;;;11.10;99.90;;;;;;5059487;28;20954;-72
2023/02/17 01:55:25;;;;;;;14.40;13.07;;;11.00;99.90;;;;;;5058927;28;20472;-72
2023/02/17 01:57:56;;;;;;;15.77;14.00;;;11.20;99.90;;;;;;5059736;28;20495;-72
2023/02/17 02:00:26;;;;;;;17.97;13.40;;;11.10;99.90;;;;;;5057445;28;20455;-72
2023/02/17 02:02:54;;;;;;;15.63;13.63;;;11.10;99.90;;;;;;5060478;28;20479;-70
2023/02/17 02:05:21;;;;;;;14.40;13.20;;;11.20;99.90;;;;;;5061111;28;20462;-70
2023/02/17 02:07:50;;;;;;;15.23;13.73;;;11.20;99.90;;;;;;5059864;28;20458;-72
2023/02/17 02:10:18;;;;;;;15.33;13.73;;;11.30;99.90;;;;;;5058496;28;20466;-70
2023/02/17 02:12:45;;;;;;;13.93;12.77;;;11.30;99.90;;;;;;5059287;28;20456;-70
2023/02/17 02:15:14;;;;;;;13.60;12.40;;;11.30;99.90;;;;;;5063888;28;20456;-72
2023/02/17 02:17:52;;;;;;;15.50;14.00;;;11.20;99.90;;;;;;5064586;28;20478;-73
2023/02/17 02:21:06;;;;;;;14.07;12.90;;;11.20;99.90;;;;;;5061004;28;20466;-70
2023/02/17 02:23:58;;;;;;;13.40;12.30;;;11.30;99.90;;;;;;5031490;28;20520;-71
2023/02/17 02:27:03;;;;;;;14.37;13.27;;;11.20;99.90;;;;;;5052461;28;20972;-73
2023/02/17 02:29:57;;;;;;;13.30;11.87;;;11.30;99.90;;;;;;5054299;28;20513;-70
2023/02/17 02:32:53;;;;;;;15.60;14.20;;;11.30;99.90;;;;;;5058548;28;20972;-70
2023/02/17 02:35:28;;;;;;;15.53;14.23;;;11.30;99.90;;;;;;5054149;28;20972;-70
2023/02/17 02:38:01;;;;;;;15.03;13.67;;;11.30;99.90;;;;;;5055288;28;20485;-70
2023/02/17 02:40:34;;;;;;;15.80;14.23;;;11.30;99.90;;;;;;5055525;28;20454;-71
2023/02/17 02:43:02;;;;;;;16.20;14.47;;;11.20;99.90;;;;;;5058159;28;21147;-70
2023/02/17 02:45:31;;;;;;;15.07;13.77;;;11.20;99.90;;;;;;5058973;28;20465;-72
2023/02/17 02:47:59;;;;;;;15.40;14.10;;;11.30;99.90;;;;;;5062975;28;20815;-71
2023/02/17 02:50:35;;;;;;;16.77;15.17;;;11.30;99.90;;;;;;5054963;28;20480;-70
2023/02/17 02:53:24;;;;;;;17.27;15.57;;;11.30;99.90;;;;;;5049308;28;20766;-70
2023/02/17 02:55:54;;;;;;;16.40;14.77;;;11.30;99.90;;;;;;5058323;28;20463;-72
2023/02/17 02:58:24;;;;;;;13.90;12.70;;;11.30;99.90;;;;;;5057303;28;20852;-74
2023/02/17 03:00:59;;;;;;;15.70;14.20;;;11.30;99.90;;;;;;5058473;28;20525;-74
2023/02/17 03:03:34;;;;;;;17.33;15.63;;;11.30;99.90;;;;;;5056411;28;20494;-70
2023/02/17 03:06:10;;;;;;;15.83;14.43;;;11.30;99.90;;;;;;5061199;28;20501;-69
2023/02/17 03:08:40;;;;;;;15.63;14.23;;;11.30;99.90;;;;;;5064007;28;20462;-72
2023/02/17 03:11:07;;;;;;;16.20;14.70;;;11.30;99.90;;;;;;5057095;28;20450;-70
2023/02/17 03:13:39;;;;;;;15.17;13.87;;;11.30;99.90;;;;;;5052054;28;20836;-70
2023/02/17 03:16:07;;;;;;;14.90;13.70;;;11.30;99.90;;;;;;5059330;28;20464;-70
2023/02/17 03:18:36;;;;;;;16.20;14.50;;;11.30;99.90;;;;;;5053529;28;20475;-70
2023/02/17 03:21:10;;;;;;;15.13;13.80;;;11.30;99.90;;;;;;5047501;28;20483;-70
2023/02/17 03:23:37;;;;;;;17.03;15.43;;;11.30;99.90;;;;;;5065565;28;20493;-70
2023/02/17 03:26:04;;;;;;;16.47;14.97;;;11.40;99.90;;;;;;5057553;28;20469;-69
2023/02/17 03:28:31;;;;;;;17.50;15.90;;;11.40;99.90;;;;;;5053632;28;20471;-70
2023/02/17 03:30:58;;;;;;;15.27;13.90;;;11.30;99.90;;;;;;5056897;28;20468;-70
2023/02/17 03:33:26;;;;;;;15.27;13.77;;;11.30;99.90;;;;;;5056840;28;20463;-70
2023/02/17 03:35:54;;;;;;;15.80;14.40;;;11.30;99.90;;;;;;5051986;28;20471;-71
2023/02/17 03:38:20;;;;;;;15.30;13.90;;;11.30;99.90;;;;;;5062491;28;21337;-70
2023/02/17 03:40:47;;;;;;;16.33;14.57;;;11.30;99.90;;;;;;5051931;28;20460;-71
2023/02/17 03:43:15;;;;;;;15.80;14.10;;;11.30;99.90;;;;;;5050886;28;20498;-70
2023/02/17 03:45:42;;;;;;;16.70;15.10;;;11.40;99.90;;;;;;5055152;28;20892;-70
2023/02/17 03:48:08;;;;;;;15.53;14.23;;;11.40;99.90;;;;;;5063908;28;20856;-71
2023/02/17 03:50:35;;;;;;;15.27;13.70;;;11.40;99.90;;;;;;5060098;28;20467;-69
2023/02/17 03:53:04;;;;;;;15.70;14.20;;;11.40;99.90;;;;;;5055326;28;20857;-70
2023/02/17 03:55:31;;;;;;;16.37;14.93;;;11.30;99.90;;;;;;5054160;28;21007;-73
2023/02/17 03:57:58;;;;;;;16.30;14.70;;;11.40;99.90;;;;;;5055439;28;20522;-70
2023/02/17 04:00:25;;;;;;;15.30;14.00;;;11.30;99.90;;;;;;5051618;28;20470;-70
2023/02/17 04:02:51;;;;;;;16.93;14.17;;;11.30;99.90;;;;;;5056115;28;20462;-75
2023/02/17 04:05:19;;;;;;;15.83;14.43;;;11.30;99.90;;;;;;5055699;28;20471;-70
2023/02/17 04:07:45;;;;;;;15.80;14.40;;;11.30;99.90;;;;;;5054647;28;20479;-73
2023/02/17 04:10:17;;;;;;;16.80;14.87;;;11.30;99.90;;;;;;5055190;28;20801;-69
2023/02/17 04:12:43;;;;;;;15.63;14.20;;;11.30;99.90;;;;;;5056467;28;20985;-70
2023/02/17 04:15:10;;;;;;;15.83;14.47;;;11.20;99.90;;;;;;5057046;28;20482;-71
2023/02/17 04:17:37;;;;;;;16.73;15.33;;;11.20;99.90;;;;;;5056181;28;20491;-69
2023/02/17 04:20:06;;;;;;;14.33;13.10;;;11.30;99.90;;;;;;5051410;28;20476;-72
2023/02/17 04:22:32;;;;;;;16.27;14.90;;;11.30;99.90;;;;;;5057927;28;20691;-70
2023/02/17 04:25:00;;;;;;;15.70;13.87;;;11.30;99.90;;;;;;5054570;28;20459;-70
2023/02/17 04:27:28;;;;;;;16.07;14.73;;;11.20;99.90;;;;;;5048380;28;20464;-70
2023/02/17 04:29:55;;;;;;;16.00;14.10;;;11.30;99.90;;;;;;5062144;28;20503;-70
2023/02/17 04:32:22;;;;;;;15.50;14.10;;;11.20;99.90;;;;;;5054840;28;20463;-71
2023/02/17 04:34:49;;;;;;;15.37;13.90;;;11.30;99.90;;;;;;5056473;28;20992;-70
2023/02/17 04:37:16;;;;;;;16.00;14.50;;;11.30;99.90;;;;;;5056529;28;20981;-72
2023/02/17 04:39:43;;;;;;;15.10;13.80;;;11.30;99.90;;;;;;5057980;28;20875;-73
2023/02/17 04:42:09;;;;;;;15.37;13.87;;;11.40;99.90;;;;;;5056338;28;20768;-70
2023/02/17 04:44:38;;;;;;;14.93;13.83;;;11.30;99.90;;;;;;5056264;28;20471;-69
2023/02/17 04:47:05;;;;;;;13.70;12.67;;;11.30;99.90;;;;;;5052151;28;20475;-70
2023/02/17 04:49:32;;;;;;;16.13;14.70;;;11.30;99.90;;;;;;5051753;28;20467;-71
2023/02/17 04:51:59;;;;;;;14.43;13.10;;;11.30;99.90;;;;;;5054829;28;20471;-70
2023/02/17 04:54:26;;;;;;;15.97;14.80;;;11.30;99.90;;;;;;5052549;28;20464;-70
2023/02/17 04:56:53;;;;;;;15.63;13.30;;;11.30;99.90;;;;;;5056125;28;20479;-74
2023/02/17 04:59:20;;;;;;;14.27;12.80;;;11.30;99.90;;;;;;5054045;28;20462;-70
2023/02/17 05:01:48;;;;;;;17.53;15.93;;;11.40;99.90;;;;;;5057684;28;20467;-72
2023/02/17 05:04:15;;;;;;;15.50;14.20;;;11.30;99.90;;;;;;5048801;28;20455;-70
2023/02/17 05:06:42;;;;;;;16.50;15.20;;;11.40;99.90;;;;;;5057277;28;20486;-70
2023/02/17 05:09:09;;;;;;;15.20;13.80;;;11.40;99.90;;;;;;5059151;28;20520;-69
2023/02/17 05:11:36;;;;;;;15.73;14.07;;;11.40;99.90;;;;;;5054990;28;20463;-70
2023/02/17 05:14:03;;;;;;;16.63;15.10;;;11.40;99.90;;;;;;5058851;28;20512;-71
2023/02/17 05:16:30;;;;;;;14.40;13.03;;;11.40;99.90;;;;;;5053395;28;20493;-70
2023/02/17 05:18:58;;;;;;;16.00;14.70;;;11.40;99.90;;;;;;5058608;28;20494;-71
2023/02/17 05:21:25;;;;;;;14.70;13.40;;;11.40;99.90;;;;;;5057627;28;20463;-72
2023/02/17 05:23:52;;;;;;;12.83;11.80;;;11.40;99.90;;;;;;5056519;28;20474;-74
2023/02/17 05:26:19;;;;;;;13.33;12.33;;;11.40;99.90;;;;;;5051426;28;20460;-70
2023/02/17 05:28:46;;;;;;;15.13;13.97;;;11.40;99.90;;;;;;5058044;28;20481;-70
2023/02/17 05:31:13;;;;;;;15.73;14.50;;;11.40;99.90;;;;;;5061176;28;20466;-71
2023/02/17 05:33:40;;;;;;;15.80;14.60;;;11.40;99.90;;;;;;5056726;28;20569;-73
2023/02/17 05:36:10;;;;;;;14.40;13.20;;;11.40;99.90;;;;;;5051551;28;20464;-70
2023/02/17 05:38:38;;;;;;;16.23;14.93;;;11.40;99.90;;;;;;5054459;28;20874;-70
2023/02/17 05:41:05;;;;;;;15.97;14.47;;;11.40;99.90;;;;;;5059394;28;20471;-70
2023/02/17 05:43:34;;;;;;;15.90;14.70;;;11.40;99.90;;;;;;5060072;28;20806;-70
2023/02/17 05:46:02;;;;;;;15.20;14.00;;;11.50;99.90;;;;;;5055668;28;20810;-72
2023/02/17 05:48:30;;;;;;;16.07;14.83;;;11.50;99.90;;;;;;5053986;28;20955;-70
2023/02/17 05:50:57;;;;;;;15.00;13.60;;;11.40;99.90;;;;;;5055177;28;20459;-70
2023/02/17 05:53:25;;;;;;;17.20;15.50;;;11.40;99.90;;;;;;5060856;28;20468;-70
2023/02/17 05:55:52;;;;;;;16.03;14.63;;;11.50;99.90;;;;;;5053096;28;20478;-71
2023/02/17 05:58:18;;;;;;;14.13;12.83;;;11.40;99.90;;;;;;5057924;28;20790;-70
2023/02/17 06:00:45;;;;;;;16.50;15.10;;;11.50;99.90;;;;;;5062760;28;20455;-72
2023/02/17 06:03:12;;;;;;;15.30;14.10;;;11.50;99.90;;;;;;5060732;28;20491;-73
2023/02/17 06:05:39;;;;;;;16.50;15.10;;;11.50;99.90;;;;;;5048497;28;20471;-72
2023/02/17 06:08:06;;;;;;;14.43;13.23;;;11.50;99.90;;;;;;5062794;28;20664;-70
2023/02/17 06:10:34;;;;;;;13.03;12.03;;;11.50;99.90;;;;;;5061493;28;20478;-70
2023/02/17 06:13:01;;;;;;;16.43;14.83;;;11.40;99.90;;;;;;5055136;28;20473;-72
2023/02/17 06:15:29;;;;;;;14.40;13.40;;;11.50;99.90;;;;;;5059184;28;20852;-71
2023/02/17 06:17:55;;;;;;;15.47;13.93;;;11.50;99.90;;;;;;5056531;28;20501;-70
2023/02/17 06:20:22;;;;;;;15.63;14.33;;;11.50;99.90;;;;;;5060473;28;20466;-71
2023/02/17 06:22:49;;;;;;;12.30;11.30;;;11.40;99.90;;;;;;5056910;28;20467;-71
2023/02/17 06:25:16;;;;;;;16.40;13.43;;;11.50;99.90;;;;;;5050529;28;20517;-72
2023/02/17 06:27:44;;;;;;;14.33;11.30;;;11.40;99.90;;;;;;5055691;28;20877;-71
2023/02/17 06:30:13;;;;;;;15.30;14.10;;;11.40;99.90;;;;;;5055845;28;20459;-71
2023/02/17 06:32:40;;;;;;;14.43;13.33;;;11.50;99.90;;;;;;5053362;28;20463;-69
2023/02/17 06:35:07;;;;;;;12.90;11.80;;;11.50;99.90;;;;;;5057347;28;20980;-73
2023/02/17 06:37:34;;;;;;;12.43;11.43;;;11.50;99.90;;;;;;5054078;28;21007;-71
2023/02/17 06:40:01;;;;;;;14.60;13.30;;;11.40;99.90;;;;;;5055727;28;20966;-71
2023/02/17 06:42:28;;;;;;;14.93;13.53;;;11.50;99.90;;;;;;5056934;28;20548;-71
2023/02/17 06:44:56;;;;;;;13.40;12.33;;;11.50;99.90;;;;;;5056049;28;20541;-70
2023/02/17 06:47:23;;;;;;;14.13;12.83;;;11.50;99.90;;;;;;5063328;28;20468;-70
2023/02/17 06:49:50;;;;;;;13.80;12.70;;;11.50;99.90;;;;;;5066582;28;20751;-71
2023/02/17 06:52:17;;;;;;;15.70;12.83;;;11.50;99.90;;;;;;5055178;28;20473;-72
2023/02/17 06:54:46;;;;;;;14.73;13.27;;;11.50;99.90;;;;;;5050758;28;20998;-71
2023/02/17 06:57:13;;;;;;;12.80;11.60;;;11.50;99.90;;;;;;5058400;28;20470;-72
2023/02/17 06:59:39;;;;;;;13.83;12.63;;;11.40;99.90;;;;;;5058100;28;20462;-72
2023/02/17 07:02:11;;;;;;;14.30;12.90;;;11.50;99.90;;;;;;5052985;28;20920;-70
2023/02/17 07:04:38;;;;;;;15.07;13.60;;;11.50;99.90;;;;;;5050604;28;20474;-72
2023/02/17 07:07:07;;;;;;;12.83;11.83;;;11.50;99.90;;;;;;5057589;28;20490;-71
2023/02/17 07:09:34;;;;;;;14.23;12.83;;;11.50;99.90;;;;;;5052228;28;20797;-71
2023/02/17 07:12:02;;;;;;;13.90;12.60;;;11.40;99.90;;;;;;5054996;28;20520;-71
2023/02/17 07:14:28;;;;;;;13.10;12.03;;;11.40;99.90;;;;;;5059132;28;20459;-71
2023/02/17 07:16:55;;;;;;;13.17;11.87;;;11.40;99.90;;;;;;5052605;28;20471;-71
2023/02/17 07:19:23;;;;;;;13.53;11.60;;;11.50;99.90;;;;;;5059327;28;20540;-71
2023/02/17 07:21:50;;;;;;;13.13;11.90;;;11.50;99.90;;;;;;5056461;28;20919;-71
2023/02/17 07:24:17;;;;;;;13.80;12.50;;;11.40;99.90;;;;;;5054538;28;20470;-74
2023/02/17 07:26:44;;;;;;;12.13;11.10;;;11.50;99.90;;;;;;5054447;28;20459;-74
2023/02/17 07:29:11;;;;;;;12.83;11.60;;;11.50;99.90;;;;;;5060727;28;20476;-70
2023/02/17 07:31:38;;;;;;;12.80;11.53;;;11.50;99.90;;;;;;5056313;28;20471;-71
2023/02/17 07:34:05;;;;;;;12.90;11.90;;;11.50;99.90;;;;;;5051648;28;20841;-73
2023/02/17 07:36:34;;;;;;;13.87;12.67;;;11.60;99.90;;;;;;5053293;28;20463;-74
2023/02/17 07:39:02;;;;;;;12.27;11.30;;;11.60;99.90;;;;;;5054069;28;20482;-71
2023/02/17 07:41:30;;;;;;;12.37;11.37;;;11.60;99.90;;;;;;5051592;28;20493;-71
2023/02/17 07:43:58;;;;;;;13.10;12.00;;;11.60;99.90;;;;;;5059683;28;20464;-74
2023/02/17 07:46:25;;;;;;;13.17;11.73;;;11.60;99.90;;;;;;5054535;28;20965;-71
2023/02/17 07:48:53;;;;;;;14.80;13.43;;;11.60;99.90;;;;;;5052165;28;20467;-71
2023/02/17 07:51:22;;;;;;;12.80;11.50;;;11.60;99.90;;;;;;5056138;28;20529;-73
2023/02/17 07:53:52;;;;;;;13.80;12.60;;;11.60;99.90;;;;;;5038073;28;20490;-70
2023/02/17 07:56:22;;;;;;;13.97;12.27;;;11.70;99.90;;;;;;5054590;28;20459;-71
2023/02/17 07:58:51;;;;;;;13.30;11.97;;;11.70;99.90;;;;;;5052683;28;20514;-75
2023/02/17 08:01:19;;;;;;;12.43;11.30;;;11.70;99.90;;;;;;5058252;28;20643;-71
2023/02/17 08:03:47;;;;;;;12.53;11.33;;;11.80;99.90;;;;;;5052110;28;20468;-71
2023/02/17 08:06:16;;;;;;;11.13;10.23;;;11.80;99.90;;;;;;5052977;28;20479;-71
2023/02/17 08:14:14;;;;;;;13.87;12.57;;;11.90;99.90;;;;;;5051730;28;20453;-71
2023/02/17 08:16:42;;;;;;;11.40;10.60;;;12.00;99.90;;;;;;5049102;28;20468;-71
2023/02/17 08:19:08;;;;;;;13.80;12.57;;;12.00;99.90;;;;;;5053586;28;20624;-71
2023/02/17 08:21:36;;;;;;;13.20;12.10;;;12.00;99.90;;;;;;5054780;28;20470;-71
2023/02/17 08:24:03;;;;;;;13.23;11.90;;;12.10;99.90;;;;;;5051721;28;20467;-73
2023/02/17 08:26:32;;;;;;;12.50;11.40;;;12.10;99.90;;;;;;5051078;28;20468;-71
2023/02/17 08:28:59;;;;;;;13.40;12.30;;;12.10;99.90;;;;;;5054924;28;20459;-71
2023/02/17 08:31:28;;;;;;;13.43;12.10;;;12.20;99.90;;;;;;5053117;28;20456;-72
2023/02/17 08:33:55;;;;;;;12.60;11.63;;;12.10;99.90;;;;;;5050853;28;20452;-71
2023/02/17 08:36:23;;;;;;;13.50;12.40;;;12.20;99.90;;;;;;5050506;28;20459;-73
2023/02/17 08:38:51;;;;;;;14.73;13.40;;;12.20;99.90;;;;;;5049803;28;20514;-75
2023/02/17 08:41:21;;;;;;;12.83;11.83;;;12.20;99.90;;;;;;5049536;28;20482;-72
2023/02/17 08:43:50;;;;;;;12.83;11.80;;;12.30;99.90;;;;;;5046485;28;20844;-74
2023/02/17 08:46:18;;;;;;;12.97;11.80;;;12.40;99.90;;;;;;5052183;28;20474;-72
2023/02/17 08:48:46;;;;;;;13.17;12.27;;;12.40;99.90;;;;;;5063391;28;20691;-71
2023/02/17 08:51:14;;;;;;;15.10;12.83;;;12.50;99.90;;;;;;5053719;28;20459;-71
2023/02/17 08:53:42;;;;;;;13.87;12.77;;;12.40;99.90;;;;;;5051654;28;20464;-72
2023/02/17 08:56:09;;;;;;;14.50;13.30;;;12.50;99.90;;;;;;5045558;28;20963;-72
2023/02/17 08:58:37;;;;;;;13.67;12.67;;;12.60;99.90;;;;;;5057495;28;20492;-73
2023/02/17 09:01:05;;;;;;;14.00;12.97;;;12.60;99.90;;;;;;5064200;28;21031;-73
2023/02/17 09:03:33;;;;;;;13.73;12.73;;;12.70;99.90;;;;;;5055785;28;20455;-72
2023/02/17 09:06:01;;;;;;;13.40;12.50;;;12.60;99.90;;;;;;5048600;28;20546;-72
2023/02/17 09:08:29;;;;;;;12.73;11.83;;;12.70;99.90;;;;;;5045434;28;20558;-72
2023/02/17 09:10:56;;;;;;;13.50;12.50;;;12.80;99.90;;;;;;5056825;28;20472;-71
2023/02/17 09:13:26;;;;;;;14.53;13.23;;;12.80;99.90;;;;;;5059377;28;20516;-75
2023/02/17 09:15:53;;;;;;;14.00;13.00;;;12.90;99.90;;;;;;5057878;28;20550;-74
2023/02/17 09:18:22;;;;;;;14.60;13.50;;;13.00;99.90;;;;;;5056199;28;20479;-74
2023/02/17 09:20:49;;;;;;;20.10;13.13;;;13.00;99.90;;;;;;5053454;28;20823;-72
2023/02/17 09:23:16;;;;;;;14.93;13.63;;;13.10;99.90;;;;;;5045938;28;20476;-70
2023/02/17 09:25:44;;;;;;;14.50;13.47;;;13.10;99.90;;;;;;5048378;28;20509;-72
2023/02/17 09:28:12;;;;;;;14.30;13.37;;;13.10;99.90;;;;;;5048741;28;20984;-73
2023/02/17 09:30:39;;;;;;;14.60;13.50;;;13.10;99.90;;;;;;5055430;28;20756;-72
2023/02/17 09:33:06;;;;;;;14.13;13.10;;;13.10;99.90;;;;;;5047089;28;20490;-71
2023/02/17 09:35:44;;;;;;;14.77;13.57;;;13.10;99.90;;;;;;5050308;28;20727;-71
2023/02/17 09:38:10;;;;;;;18.53;13.23;;;13.10;99.90;;;;;;5051306;28;20487;-71
2023/02/17 09:40:44;;;;;;;14.60;13.50;;;13.30;99.90;;;;;;5049057;28;20463;-71
2023/02/17 09:43:14;;;;;;;14.20;13.00;;;13.30;99.90;;;;;;5053659;28;20491;-71
2023/02/17 09:45:43;;;;;;;14.30;12.97;;;13.30;99.90;;;;;;5051830;28;20463;-71
2023/02/17 09:48:13;;;;;;;14.93;13.60;;;13.40;99.90;;;;;;5053303;28;20463;-74
2023/02/17 09:50:47;;;;;;;14.57;13.60;;;13.40;99.90;;;;;;5050175;28;20459;-73
2023/02/17 09:53:22;;;;;;;13.43;12.57;;;13.60;99.90;;;;;;5047385;28;20843;-70
2023/02/17 09:55:53;;;;;;;14.03;13.20;;;13.60;99.90;;;;;;5048133;28;20462;-71
2023/02/17 09:58:23;;;;;;;14.63;13.63;;;13.70;99.90;;;;;;5055962;28;20483;-71
2023/02/17 10:00:54;;;;;;;14.53;13.50;;;13.60;99.90;;;;;;5050133;28;21845;-73
2023/02/17 10:03:29;;;;;;;14.10;13.20;;;13.60;99.90;;;;;;5055273;28;20550;-75
2023/02/17 10:06:07;;;;;;;14.93;13.90;;;13.70;99.90;;;;;;5052979;28;20895;-73
2023/02/17 10:08:38;;;;;;;15.00;14.07;;;13.80;99.90;;;;;;5054001;28;20459;-74
2023/02/17 10:11:14;;;;;;;14.77;13.77;;;13.80;99.90;;;;;;5054360;28;20824;-77
2023/02/17 10:13:44;;;;;;;13.90;12.97;;;13.70;99.90;;;;;;5055312;28;20470;-73
2023/02/17 10:16:18;;;;;;;14.70;13.80;;;13.80;99.90;;;;;;5065116;28;20961;-74
2023/02/17 10:18:52;;;;;;;14.37;13.33;;;13.80;99.90;;;;;;5056768;28;20512;-73
2023/02/17 10:21:27;;;;;;;14.30;13.17;;;13.80;99.90;;;;;;5057925;28;20562;-73
2023/02/17 10:23:53;;;;;;;14.90;13.93;;;14.00;99.90;;;;;;5053481;28;20462;-73
2023/02/17 10:26:29;;;;;;;14.87;13.97;;;14.20;99.90;;;;;;5052553;28;20471;-73
2023/02/17 10:29:05;;;;;;;14.90;13.90;;;14.20;99.90;;;;;;5058068;28;21013;-73
2023/02/17 10:31:44;;;;;;;15.60;14.13;;;14.30;99.90;;;;;;5053448;28;20459;-76
2023/02/17 10:34:18;;;;;;;15.93;14.83;;;14.40;99.90;;;;;;5056486;28;21222;-74
2023/02/17 10:36:56;;;;;;;14.00;13.10;;;14.40;99.90;;;;;;5059896;28;20725;-73
2023/02/17 10:39:37;;;;;;;14.90;13.80;;;14.40;99.90;;;;;;5052945;28;20526;-73
2023/02/17 10:42:04;;;;;;;15.80;14.70;;;14.30;99.90;;;;;;5052577;28;20510;-73
2023/02/17 10:44:36;;;;;;;14.90;13.80;;;14.40;99.90;;;;;;5058422;28;20470;-76
2023/02/17 10:47:05;;;;;;;15.63;14.60;;;14.30;99.90;;;;;;5054890;28;20480;-74
2023/02/17 10:49:36;;;;;;;13.90;13.00;;;14.20;99.90;;;;;;5054527;28;20470;-73
2023/02/17 10:52:12;;;;;;;16.80;15.40;;;14.20;99.90;;;;;;5053997;28;20479;-73
2023/02/17 10:54:44;;;;;;;14.77;13.77;;;14.20;99.90;;;;;;5061533;28;20486;-73
2023/02/17 10:57:13;;;;;;;14.87;13.97;;;14.10;99.90;;;;;;5058155;28;20487;-72
2023/02/17 10:59:41;;;;;;;15.30;14.30;;;14.20;99.90;;;;;;5056720;28;20881;-76
2023/02/17 11:02:17;;;;;;;14.60;13.70;;;14.20;99.90;;;;;;5053492;28;20467;-73
2023/02/17 11:04:46;;;;;;;14.60;13.60;;;14.10;99.90;;;;;;5045203;28;20472;-74
2023/02/17 11:07:17;;;;;;;14.23;13.13;;;14.20;99.90;;;;;;5048046;28;20479;-73
2023/02/17 11:09:49;;;;;;;15.17;14.07;;;14.20;99.90;;;;;;5049221;28;20463;-73
2023/02/17 11:12:21;;;;;;;14.40;13.30;;;14.40;99.90;;;;;;5053555;28;20467;-72
2023/02/17 11:14:51;;;;;;;15.20;14.20;;;14.50;99.90;;;;;;5052192;28;20466;-76
2023/02/17 11:17:23;;;;;;;15.80;14.70;;;14.50;99.90;;;;;;5055246;28;20470;-73
2023/02/17 11:19:58;;;;;;;15.53;14.43;;;14.50;99.90;;;;;;5051662;28;21012;-73
2023/02/17 11:22:46;;;;;;;16.07;14.97;;;14.50;99.90;;;;;;5054982;28;20463;-73
2023/02/17 11:25:22;;;;;;;15.83;14.73;;;14.50;99.90;;;;;;5047155;28;21446;-73
2023/02/17 11:27:53;;;;;;;16.47;15.07;;;14.70;99.90;;;;;;5050765;28;20556;-73
2023/02/17 11:30:20;;;;;;;16.23;15.03;;;14.90;99.90;;;;;;5064089;28;20467;-74
2023/02/17 11:32:48;;;;;;;15.83;14.83;;;15.00;99.90;;;;;;5050333;28;20860;-73
2023/02/17 11:35:24;;;;;;;14.33;13.20;;;14.90;99.90;;;;;;5052582;28;20467;-73
2023/02/17 11:38:00;;;;;;;16.47;15.10;;;15.00;99.90;;;;;;5057220;28;20858;-76
2023/02/17 11:40:30;;;;;;;15.63;14.63;;;15.30;99.90;;;;;;5056157;28;20501;-73
2023/02/17 11:42:59;;;;;;;15.23;14.17;;;15.30;99.90;;;;;;5053363;28;20499;-72
2023/02/17 11:45:29;;;;;;;15.60;14.60;;;15.40;99.90;;;;;;5055742;28;20466;-73
2023/02/17 11:48:14;;;;;;;16.30;15.20;;;15.40;99.90;;;;;;5055727;28;20468;-75
2023/02/17 11:50:47;;;;;;;16.20;15.10;;;15.30;99.90;;;;;;5058366;28;20462;-74
2023/02/17 11:53:24;;;;;;;15.07;14.17;;;15.20;99.90;;;;;;5057055;28;20455;-72
2023/02/17 11:56:05;;;;;;;15.40;14.40;;;15.20;99.90;;;;;;5052693;28;21209;-74
2023/02/17 11:58:44;;;;;;;15.50;14.30;;;15.30;99.90;;;;;;5052401;28;20466;-72
2023/02/17 12:01:26;;;;;;;16.03;15.13;;;15.30;99.90;;;;;;5049853;28;20498;-72
2023/02/17 12:04:34;;;;;;;15.57;14.57;;;15.30;99.90;;;;;;5046328;28;20464;-75
2023/02/17 12:07:20;;;;;;;16.07;14.87;;;15.10;99.90;;;;;;5045097;28;20471;-76
2023/02/17 12:09:57;;;;;;;15.43;14.40;;;14.90;99.90;;;;;;5053441;28;20476;-72
2023/02/17 12:12:33;;;;;;;14.90;14.10;;;15.00;99.90;;;;;;5055368;28;20836;-72
2023/02/17 12:15:15;;;;;;;16.47;15.27;;;15.10;99.90;;;;;;5051478;28;20455;-70
2023/02/17 12:17:51;;;;;;;15.20;13.93;;;15.20;99.90;;;;;;5054457;28;20467;-74
2023/02/17 12:20:35;;;;;;;15.20;14.30;;;15.20;99.90;;;;;;5048144;28;21065;-72
2023/02/17 12:23:11;;;;;;;14.37;13.57;;;15.00;99.90;;;;;;5052607;28;20809;-72
2023/02/17 12:25:47;;;;;;;14.57;13.77;;;15.00;99.90;;;;;;5053326;28;20742;-71
2023/02/17 12:28:39;;;;;;;14.60;13.60;;;15.10;99.90;;;;;;5052296;28;20467;-72
2023/02/17 12:31:15;;;;;;;14.57;13.77;;;15.40;99.90;;;;;;5052815;28;20471;-72
2023/02/17 12:33:54;;;;;;;15.13;14.33;;;15.70;99.90;;;;;;5045573;28;20460;-71
2023/02/17 12:36:23;;;;;;;14.97;14.07;;;15.80;99.90;;;;;;5048514;28;20943;-73
2023/02/17 12:38:54;;;;;;;15.43;14.50;;;15.70;99.90;;;;;;5056995;28;20455;-71
2023/02/17 12:41:26;;;;;;;16.23;15.13;;;15.60;99.90;;;;;;5053361;28;20490;-74
2023/02/17 12:43:56;;;;;;;15.60;14.70;;;15.80;99.90;;;;;;5049017;28;20825;-71
2023/02/17 12:46:27;;;;;;;15.40;14.60;;;15.80;99.90;;;;;;5045397;28;21005;-74
2023/02/17 12:48:57;;;;;;;15.23;14.00;;;16.00;99.90;;;;;;5047133;28;20705;-71